Zeugman — TCCO9 — position and weather

sailwx.info

Track history (hours):
 
Tides and Currents Weather Stations Pressure Air Temp Water Temp Dewpoint Dewpoint Depression Visibility Wind Speed Wind Dir Waves Ship Positions

Zeugman

Last reported at 2018-Jan-30 04:44 UTC. Time now 2018-Feb-19 09:58 UTC.
Position S 24°01' W 046°21'.
Warning: this ship's position is 20 days out of date.

Length 109 m; draft 5.3 m.

Type: Tanker. MMSI: 271000725.

Date/timePositionNaut miles runAvg speedWind from/ knotsBaromVisibWave heightAir tempDewpointWater temp
2018-Jan-30 04:44S 24°01' W 046°21'2 9.0
2018-Jan-30 04:30S 23°60' W 046°19'3 5.5
2018-Jan-30 04:00S 23°57' W 046°19'2 0.1
2018-Jan-29 08:45S 23°55' W 046°20'0 0.0
2018-Jan-29 04:24S 23°55' W 046°20'0 0.0
2018-Jan-28 12:41S 23°55' W 046°20'0 0.8
2018-Jan-28 12:30S 23°55' W 046°20'4 6.8
2018-Jan-28 11:59S 23°58' W 046°18'4 6.7
2018-Jan-28 11:26S 24°01' W 046°20'2 4.3
2018-Jan-28 10:58S 24°03' W 046°20'  
Track history (hours):
 
Tides and Currents Weather Stations Pressure Air Temp Water Temp Dewpoint Dewpoint Depression Visibility Wind Speed Wind Dir Waves Ship Positions

Zeugman

Last reported at 2018-Jan-30 04:44 UTC. Time now 2018-Feb-19 09:58 UTC.
Position S 24°01' W 046°21'.
Warning: this ship's position is 20 days out of date.

Length 109 m; draft 5.3 m.

Type: Tanker. MMSI: 271000725.

Date/timePositionNaut miles runAvg speedWind from/ knotsBaromVisibWave heightAir tempDewpointWater temp
2018-Jan-30 04:44S 24°01' W 046°21'2 9.0
2018-Jan-30 04:30S 23°60' W 046°19'3 5.5
2018-Jan-30 04:00S 23°57' W 046°19'2 0.1
2018-Jan-29 08:45S 23°55' W 046°20'0 0.0
2018-Jan-29 04:24S 23°55' W 046°20'0 0.0
2018-Jan-28 12:41S 23°55' W 046°20'0 0.8
2018-Jan-28 12:30S 23°55' W 046°20'4 6.8
2018-Jan-28 11:59S 23°58' W 046°18'4 6.7
2018-Jan-28 11:26S 24°01' W 046°20'2 4.3
2018-Jan-28 10:58S 24°03' W 046°20'  

Dump ship's entire track history